Xin'an, China
Current Conditions -  °F | °C
As of 6:00 PM on Thursday 27 Nov 2014 (Local Time) from ZYCC Reporting Station
Clear Clear  
Wind Chill: 21°   Ceiling: Unl
Heat Index: 21°   Visibility: 4mi
Dew Point: -8°   Wind: 2mph
Humidity: 28%   Direction: 280°W
Pressure: 30.33"   Gusts: NA
Location:  43.75°N, 125.68°E
Report Text: ZYCC 271000Z 28001MPS 6000 NSC M06/M22 Q1027 NOSIG
Loading
Personal Weather Stations






























Interactive Weather Map New forecast layout! Learn more

10-Day Weather Forecast

Advertisements
Track Severe Weather on mobile